createdAt,value
2023-03-12T00:01:30.298Z,85.57
2023-03-12T00:04:03.212Z,85.60
2023-03-12T00:06:35.136Z,85.57
2023-03-12T00:09:07.754Z,85.61
2023-03-12T00:11:40.352Z,85.57
2023-03-12T00:14:12.434Z,85.69
2023-03-12T00:16:44.683Z,85.83
2023-03-12T00:19:16.748Z,85.86
2023-03-12T00:21:49.000Z,85.88
2023-03-12T00:24:21.251Z,85.98
2023-03-12T00:26:53.142Z,86.09
2023-03-12T00:29:25.162Z,86.14
2023-03-12T00:31:57.482Z,86.08
2023-03-12T00:34:29.578Z,86.15
2023-03-12T00:37:02.221Z,86.27
2023-03-12T00:39:35.222Z,86.24
2023-03-12T00:42:07.576Z,86.25
2023-03-12T00:44:40.180Z,86.24
2023-03-12T00:47:12.397Z,86.38
2023-03-12T00:49:44.624Z,86.27
2023-03-12T00:52:17.119Z,86.30
2023-03-12T00:54:49.466Z,86.46
2023-03-12T00:57:21.677Z,86.51
2023-03-12T00:59:53.748Z,86.48
2023-03-12T01:02:25.672Z,86.46
2023-03-12T01:04:58.210Z,86.54
2023-03-12T01:07:30.381Z,86.59
2023-03-12T01:10:02.854Z,86.71
2023-03-12T01:12:34.742Z,86.57
2023-03-12T01:15:07.585Z,86.68
2023-03-12T01:17:40.342Z,86.73
2023-03-12T01:20:12.926Z,86.79
2023-03-12T01:22:44.826Z,86.84
2023-03-12T01:25:16.990Z,86.75
2023-03-12T01:27:48.850Z,86.70
2023-03-12T01:30:21.781Z,86.74
2023-03-12T01:32:53.989Z,86.88
2023-03-12T01:35:26.812Z,86.87
2023-03-12T01:37:59.056Z,86.89
2023-03-12T01:40:32.391Z,86.77
2023-03-12T01:43:31.741Z,86.85
2023-03-12T01:46:24.437Z,86.81
2023-03-12T01:49:04.099Z,86.81
2023-03-12T01:51:47.556Z,86.97
2023-03-12T01:54:25.659Z,87.17
2023-03-12T01:56:58.666Z,87.18
2023-03-12T01:59:39.170Z,87.22
2023-03-12T02:02:11.663Z,87.23
2023-03-12T02:04:46.936Z,87.36
2023-03-12T02:07:19.991Z,87.27
2023-03-12T02:09:52.199Z,87.32
2023-03-12T02:12:24.582Z,87.36
2023-03-12T02:14:56.598Z,87.42
2023-03-12T02:17:28.756Z,87.52
2023-03-12T02:20:24.410Z,87.60
2023-03-12T02:23:12.912Z,87.72
2023-03-12T02:25:48.118Z,87.62
2023-03-12T02:28:23.797Z,87.68
2023-03-12T02:30:58.737Z,87.66
2023-03-12T02:33:30.917Z,87.54
2023-03-12T02:36:03.023Z,87.63
2023-03-12T02:38:46.980Z,87.73
2023-03-12T02:41:37.305Z,87.63
2023-03-12T02:44:12.397Z,87.66
2023-03-12T02:46:47.220Z,87.57
2023-03-12T02:49:21.582Z,87.61
2023-03-12T02:51:54.061Z,87.76
2023-03-12T02:54:26.763Z,87.71
2023-03-12T02:56:59.278Z,87.68
2023-03-12T02:59:32.277Z,87.67
2023-03-12T03:02:05.199Z,87.77
2023-03-12T03:04:37.256Z,87.67
2023-03-12T03:07:09.196Z,87.74
2023-03-12T03:09:41.530Z,87.86
2023-03-12T03:12:13.573Z,87.84
2023-03-12T03:14:46.394Z,87.83
2023-03-12T03:17:18.403Z,87.91
2023-03-12T03:19:50.519Z,87.96
2023-03-12T03:22:24.598Z,87.99
2023-03-12T03:24:56.846Z,87.99
2023-03-12T03:27:28.903Z,88.08
2023-03-12T03:30:02.254Z,87.94
2023-03-12T03:32:35.825Z,88.02
2023-03-12T03:35:08.335Z,88.03
2023-03-12T03:37:40.311Z,88.13
2023-03-12T03:40:13.692Z,88.31
2023-03-12T03:42:45.906Z,88.27
2023-03-12T03:45:19.758Z,88.38
2023-03-12T03:47:52.334Z,88.22
2023-03-12T03:50:25.853Z,88.38
2023-03-12T03:52:58.118Z,88.31
2023-03-12T03:55:31.259Z,88.32
2023-03-12T03:58:03.434Z,88.41
2023-03-12T04:00:35.810Z,88.44
2023-03-12T04:03:08.309Z,88.45
2023-03-12T04:05:40.817Z,88.32
2023-03-12T04:08:14.510Z,88.23
2023-03-12T04:10:47.005Z,88.22
2023-03-12T04:13:19.328Z,88.32
2023-03-12T04:15:53.683Z,88.25
2023-03-12T04:18:26.020Z,88.37
2023-03-12T04:20:58.998Z,88.58
2023-03-12T04:23:31.661Z,88.62
2023-03-12T04:26:05.210Z,88.42
2023-03-12T04:28:38.621Z,88.33
2023-03-12T04:31:13.461Z,88.39
2023-03-12T04:33:50.320Z,88.55
2023-03-12T04:36:23.748Z,88.71
2023-03-12T04:38:57.901Z,88.44
2023-03-12T04:41:36.007Z,88.59
2023-03-12T04:44:12.572Z,88.59
2023-03-12T04:46:43.938Z,88.67
2023-03-12T04:49:17.483Z,88.74
2023-03-12T04:51:50.318Z,88.32
2023-03-12T04:54:23.847Z,88.37
2023-03-12T04:56:56.400Z,88.53
2023-03-12T04:59:28.291Z,88.60
2023-03-12T05:02:00.637Z,88.60
2023-03-12T05:04:33.919Z,88.55
2023-03-12T05:07:06.209Z,88.61
2023-03-12T05:09:38.260Z,88.49
2023-03-12T05:12:11.000Z,88.46
2023-03-12T05:14:43.261Z,88.57
2023-03-12T05:17:16.036Z,88.58
2023-03-12T05:19:48.554Z,88.81
2023-03-12T05:22:21.014Z,88.82
2023-03-12T05:24:53.493Z,88.77
2023-03-12T05:27:26.381Z,88.66
2023-03-12T05:29:59.357Z,88.60
2023-03-12T05:32:32.040Z,88.88
2023-03-12T05:35:06.121Z,88.96
2023-03-12T05:37:39.013Z,89.12
2023-03-12T05:40:13.236Z,89.09
2023-03-12T05:42:45.496Z,88.86
2023-03-12T05:45:19.355Z,88.86
2023-03-12T05:47:52.644Z,88.92
2023-03-12T05:50:26.350Z,88.93
2023-03-12T05:52:58.677Z,88.92
2023-03-12T05:55:31.484Z,88.92
2023-03-12T05:58:05.197Z,88.83
2023-03-12T06:00:38.500Z,88.84
2023-03-12T06:03:12.595Z,88.94
2023-03-12T06:05:47.681Z,89.06
2023-03-12T06:08:19.783Z,88.96
2023-03-12T06:10:54.905Z,88.83
2023-03-12T06:13:28.637Z,89.04
2023-03-12T06:16:07.520Z,89.06
2023-03-12T06:18:40.392Z,89.06
2023-03-12T06:21:15.968Z,89.01
2023-03-12T06:23:50.214Z,89.07
2023-03-12T06:26:25.493Z,89.18
2023-03-12T06:28:58.010Z,89.23
2023-03-12T06:31:30.251Z,88.99
2023-03-12T06:34:02.347Z,89.12
2023-03-12T06:36:34.752Z,89.29
2023-03-12T06:39:10.009Z,89.13
2023-03-12T06:41:42.411Z,89.09
2023-03-12T06:44:14.299Z,89.27
2023-03-12T06:46:46.508Z,89.14
2023-03-12T06:49:18.701Z,89.15
2023-03-12T06:51:50.989Z,89.22
2023-03-12T06:54:23.789Z,89.15
2023-03-12T06:56:56.461Z,89.19
2023-03-12T06:59:29.360Z,89.23
2023-03-12T07:02:01.747Z,89.19
2023-03-12T07:04:33.986Z,89.26
2023-03-12T07:07:08.727Z,89.11
2023-03-12T07:09:40.221Z,89.16
2023-03-12T07:12:11.873Z,89.45
2023-03-12T07:14:44.204Z,88.69
2023-03-12T07:17:16.449Z,88.90
2023-03-12T07:19:49.839Z,88.98
2023-03-12T07:22:22.173Z,88.97
2023-03-12T07:24:54.136Z,89.12
2023-03-12T07:27:26.421Z,89.00
2023-03-12T07:29:58.899Z,89.08
2023-03-12T07:32:33.690Z,89.07
2023-03-12T07:35:06.926Z,89.31
2023-03-12T07:37:39.944Z,89.25
2023-03-12T07:40:12.893Z,89.20
2023-03-12T07:42:45.753Z,89.27
2023-03-12T07:45:17.916Z,89.27
2023-03-12T07:47:50.621Z,89.23
2023-03-12T07:50:22.797Z,89.24
2023-03-12T07:52:55.206Z,89.36
2023-03-12T07:55:28.093Z,89.35
2023-03-12T07:58:00.457Z,89.50
2023-03-12T08:00:33.265Z,89.52
2023-03-12T08:03:05.903Z,89.45
2023-03-12T08:05:38.167Z,89.27
2023-03-12T08:08:10.564Z,89.42
2023-03-12T08:10:42.633Z,89.60
2023-03-12T08:13:14.825Z,89.46
2023-03-12T08:15:47.302Z,89.36
2023-03-12T08:18:20.785Z,89.25
2023-03-12T08:20:54.972Z,89.17
2023-03-12T08:23:27.412Z,89.21
2023-03-12T08:26:00.870Z,89.03
2023-03-12T08:28:32.882Z,88.86
2023-03-12T08:31:05.398Z,88.86
2023-03-12T08:33:39.405Z,88.94
2023-03-12T08:36:11.962Z,88.74
2023-03-12T08:38:44.099Z,88.97
2023-03-12T08:41:16.223Z,89.21
2023-03-12T08:43:48.409Z,89.30
2023-03-12T08:46:20.636Z,89.26
2023-03-12T08:48:53.216Z,89.37
2023-03-12T08:51:25.175Z,89.06
2023-03-12T08:53:57.057Z,88.88
2023-03-12T08:56:29.277Z,88.74
2023-03-12T08:59:01.485Z,88.99
2023-03-12T09:01:34.357Z,89.06
2023-03-12T09:04:06.845Z,89.12
2023-03-12T09:06:39.336Z,89.01
2023-03-12T09:09:11.586Z,88.79
2023-03-12T09:11:44.172Z,88.56
2023-03-12T09:14:57.514Z,88.57
2023-03-12T09:16:50.253Z,88.69
2023-03-12T09:19:22.595Z,88.62
2023-03-12T09:21:54.692Z,88.72
2023-03-12T09:24:27.113Z,88.67
2023-03-12T09:26:59.718Z,88.74
2023-03-12T09:29:33.788Z,88.51
2023-03-12T09:32:06.244Z,88.41
2023-03-12T09:34:38.342Z,88.28
2023-03-12T09:37:10.261Z,88.44
2023-03-12T09:39:42.493Z,88.49
2023-03-12T09:42:18.322Z,88.68
2023-03-12T09:44:52.002Z,88.41
2023-03-12T09:47:36.113Z,88.60
2023-03-12T09:50:11.125Z,88.49
2023-03-12T09:52:46.228Z,88.35
2023-03-12T09:55:21.671Z,88.36
2023-03-12T09:57:55.781Z,88.13
2023-03-12T10:00:33.750Z,88.26
2023-03-12T10:03:17.723Z,88.22
2023-03-12T10:05:55.675Z,88.23
2023-03-12T10:08:42.662Z,88.23
2023-03-12T10:11:33.108Z,88.25
2023-03-12T10:14:23.792Z,88.11
2023-03-12T10:17:20.203Z,88.19
2023-03-12T10:20:00.928Z,88.00
2023-03-12T10:22:39.386Z,87.88
2023-03-12T10:25:43.113Z,87.93
2023-03-12T10:28:24.017Z,87.83
2023-03-12T10:30:59.286Z,87.72
2023-03-12T10:33:46.198Z,87.87
2023-03-12T10:36:21.757Z,87.71
2023-03-12T10:38:53.883Z,87.68
2023-03-12T10:41:28.879Z,88.04
2023-03-12T10:44:06.886Z,87.81
2023-03-12T10:46:42.106Z,87.78
2023-03-12T10:49:26.368Z,87.48
2023-03-12T10:52:05.254Z,87.48
2023-03-12T10:54:41.093Z,87.51
2023-03-12T10:57:15.577Z,87.11
2023-03-12T10:59:51.916Z,87.23
2023-03-12T11:02:43.125Z,87.44
2023-03-12T11:05:32.966Z,87.26
2023-03-12T11:08:07.622Z,87.31
2023-03-12T11:10:48.097Z,87.28
2023-03-12T11:13:32.033Z,87.43
2023-03-12T11:16:19.064Z,87.53
2023-03-12T11:19:00.973Z,87.60
2023-03-12T11:21:40.356Z,87.76
2023-03-12T11:24:15.035Z,87.67
2023-03-12T11:26:52.942Z,87.44
2023-03-12T11:29:35.429Z,87.34
2023-03-12T11:32:37.608Z,87.54
2023-03-12T11:35:14.678Z,87.46
2023-03-12T11:38:04.719Z,87.41
2023-03-12T11:40:45.418Z,86.86
2023-03-12T11:43:40.001Z,86.49
2023-03-12T11:46:24.453Z,85.60
2023-03-12T11:49:28.028Z,85.53
2023-03-12T11:52:22.301Z,83.18
2023-03-12T11:55:00.158Z,80.86
2023-03-12T11:57:47.849Z,79.79
2023-03-12T12:00:22.469Z,79.94
2023-03-12T12:02:57.784Z,80.96
2023-03-12T12:05:35.186Z,80.42
2023-03-12T12:08:35.202Z,80.58
2023-03-12T12:11:19.506Z,81.17
2023-03-12T12:14:18.110Z,82.14
2023-03-12T12:17:20.452Z,81.42
2023-03-12T12:20:00.890Z,81.48
2023-03-12T12:22:52.352Z,82.20
2023-03-12T12:25:36.632Z,82.55
2023-03-12T12:28:12.371Z,82.12
2023-03-12T12:30:56.487Z,82.78
2023-03-12T12:33:46.386Z,82.67
2023-03-12T12:36:19.886Z,83.19
2023-03-12T12:39:13.295Z,83.14
2023-03-12T12:41:51.564Z,83.65
2023-03-12T12:44:26.991Z,83.78
2023-03-12T12:47:02.579Z,83.96
2023-03-12T12:49:49.575Z,83.96
2023-03-12T12:52:23.510Z,84.14
2023-03-12T12:55:13.502Z,84.53
2023-03-12T12:57:57.205Z,83.27
2023-03-12T13:00:41.492Z,83.67
2023-03-12T13:03:15.624Z,83.96
2023-03-12T13:05:59.689Z,84.09
2023-03-12T13:08:37.586Z,83.12
2023-03-12T13:11:30.358Z,83.17
2023-03-12T13:14:08.502Z,83.03
2023-03-12T13:16:45.822Z,82.85
2023-03-12T13:19:21.047Z,82.74
2023-03-12T13:22:08.151Z,82.87
2023-03-12T13:24:50.443Z,82.75
2023-03-12T13:27:27.941Z,83.06
2023-03-12T13:30:02.035Z,82.85
2023-03-12T13:32:39.972Z,82.93
2023-03-12T13:35:21.220Z,83.39
2023-03-12T13:37:56.548Z,83.71
2023-03-12T13:40:34.689Z,84.04
2023-03-12T13:43:18.229Z,84.38
2023-03-12T13:46:11.868Z,84.66
2023-03-12T13:48:49.046Z,84.78
2023-03-12T13:51:24.793Z,84.31
2023-03-12T13:54:04.698Z,84.08
2023-03-12T13:56:38.382Z,83.91
2023-03-12T13:59:13.380Z,83.61
2023-03-12T14:01:51.157Z,83.63
2023-03-12T14:04:35.369Z,83.71
2023-03-12T14:07:31.402Z,83.51
2023-03-12T14:10:08.831Z,83.79
2023-03-12T14:12:59.758Z,83.80
2023-03-12T14:15:51.433Z,83.86
2023-03-12T14:18:26.412Z,83.82
2023-03-12T14:21:00.784Z,83.77
2023-03-12T14:23:39.349Z,83.90
2023-03-12T14:26:18.861Z,83.89
2023-03-12T14:28:53.799Z,84.11
2023-03-12T14:31:28.190Z,84.42
2023-03-12T14:34:03.513Z,84.15
2023-03-12T14:36:47.358Z,83.80
2023-03-12T14:39:40.047Z,83.87
2023-03-12T14:42:13.862Z,83.53
2023-03-12T14:44:49.057Z,83.66
2023-03-12T14:47:21.266Z,83.88
2023-03-12T14:49:54.658Z,83.93
2023-03-12T14:52:30.408Z,84.13
2023-03-12T14:55:05.491Z,84.46
2023-03-12T14:57:37.721Z,84.43
2023-03-12T15:00:13.514Z,84.44
2023-03-12T15:02:45.898Z,83.96
2023-03-12T15:05:20.386Z,83.45
2023-03-12T15:07:54.874Z,83.81
2023-03-12T15:10:29.386Z,84.07
2023-03-12T15:13:04.282Z,84.05
2023-03-12T15:15:39.781Z,84.07
2023-03-12T15:18:23.690Z,83.95
2023-03-12T15:20:57.583Z,84.03
2023-03-12T15:23:32.845Z,83.67
2023-03-12T15:26:19.920Z,83.38
2023-03-12T15:29:08.306Z,83.27
2023-03-12T15:31:49.099Z,82.75
2023-03-12T15:34:38.795Z,82.36
2023-03-12T15:37:41.436Z,82.76
2023-03-12T15:40:28.540Z,83.29
2023-03-12T15:43:06.122Z,83.78
2023-03-12T15:45:39.877Z,84.17
2023-03-12T15:48:23.439Z,84.54
2023-03-12T15:50:55.839Z,84.87
2023-03-12T15:53:31.499Z,85.04
2023-03-12T15:56:06.493Z,85.37
2023-03-12T15:58:41.543Z,85.77
2023-03-12T16:01:15.902Z,86.05
2023-03-12T16:03:48.417Z,86.30
2023-03-12T16:06:25.873Z,86.09
2023-03-12T16:09:04.734Z,85.79
2023-03-12T16:11:38.950Z,85.99
2023-03-12T16:14:25.842Z,86.31
2023-03-12T16:16:58.653Z,85.93
2023-03-12T16:19:34.904Z,86.38
2023-03-12T16:22:07.276Z,86.35
2023-03-12T16:24:39.661Z,86.46
2023-03-12T16:27:18.042Z,86.35
2023-03-12T16:29:49.409Z,86.71
2023-03-12T16:32:22.536Z,86.68
2023-03-12T16:34:55.653Z,86.68
2023-03-12T16:37:32.976Z,86.87
2023-03-12T16:40:06.399Z,86.59
2023-03-12T16:42:39.705Z,86.64
2023-03-12T16:45:15.417Z,86.68
2023-03-12T16:47:49.024Z,86.53
2023-03-12T16:50:23.338Z,86.40
2023-03-12T16:52:56.667Z,86.26
2023-03-12T16:55:31.803Z,85.91
2023-03-12T16:58:05.574Z,86.33
2023-03-12T17:00:37.542Z,86.30
2023-03-12T17:03:12.694Z,86.80
2023-03-12T17:05:45.564Z,86.37
2023-03-12T17:08:17.615Z,86.25
2023-03-12T17:10:50.065Z,86.41
2023-03-12T17:13:26.073Z,86.49
2023-03-12T17:15:58.920Z,86.40
2023-03-12T17:18:31.605Z,86.37
2023-03-12T17:21:04.118Z,86.47
2023-03-12T17:23:36.699Z,86.67
2023-03-12T17:26:09.780Z,86.70
2023-03-12T17:28:42.258Z,86.48
2023-03-12T17:31:14.558Z,86.75
2023-03-12T17:33:47.356Z,86.11
2023-03-12T17:36:19.646Z,86.20
2023-03-12T17:38:51.828Z,86.37
2023-03-12T17:41:26.773Z,86.28
2023-03-12T17:43:59.461Z,86.17
2023-03-12T17:46:34.771Z,86.06
2023-03-12T17:49:06.936Z,85.96
2023-03-12T17:51:39.166Z,85.89
2023-03-12T17:54:11.822Z,86.07
2023-03-12T17:56:43.858Z,86.03
2023-03-12T17:59:15.919Z,85.69
2023-03-12T18:01:48.225Z,85.67
2023-03-12T18:04:20.651Z,85.92
2023-03-12T18:06:52.727Z,85.58
2023-03-12T18:09:24.997Z,85.48
2023-03-12T18:11:57.103Z,85.41
2023-03-12T18:14:29.213Z,85.39
2023-03-12T18:17:01.357Z,85.30
2023-03-12T18:19:35.279Z,84.94
2023-03-12T18:22:07.360Z,85.35
2023-03-12T18:24:39.507Z,85.12
2023-03-12T18:27:11.895Z,85.51
2023-03-12T18:29:44.290Z,85.18
2023-03-12T18:32:16.470Z,85.31
2023-03-12T18:34:48.567Z,85.09
2023-03-12T18:37:21.611Z,85.13
2023-03-12T18:39:53.803Z,85.04
2023-03-12T18:42:25.902Z,84.23
2023-03-12T18:44:57.906Z,83.92
2023-03-12T18:47:29.705Z,83.69
2023-03-12T18:50:03.620Z,83.93
2023-03-12T18:52:36.220Z,84.29
2023-03-12T18:55:08.529Z,83.73
2023-03-12T18:57:47.711Z,83.85
2023-03-12T19:00:20.417Z,83.93
2023-03-12T19:02:52.549Z,83.63
2023-03-12T19:05:24.679Z,84.05
2023-03-12T19:07:56.715Z,84.12
2023-03-12T19:10:28.695Z,84.00
2023-03-12T19:13:00.785Z,84.12
2023-03-12T19:15:33.123Z,84.34
2023-03-12T19:18:05.229Z,83.99
2023-03-12T19:20:37.155Z,84.33
2023-03-12T19:23:09.083Z,83.98
2023-03-12T19:25:41.380Z,83.87
2023-03-12T19:28:13.753Z,83.93
2023-03-12T19:30:45.948Z,84.37
2023-03-12T19:33:18.204Z,83.86
2023-03-12T19:35:52.048Z,84.07
2023-03-12T19:38:23.593Z,83.82
2023-03-12T19:40:57.608Z,84.42
2023-03-12T19:43:29.845Z,83.97
2023-03-12T19:46:01.998Z,84.08
2023-03-12T19:48:34.342Z,84.20
2023-03-12T19:51:07.886Z,84.10
2023-03-12T19:53:40.327Z,84.26
2023-03-12T19:56:12.159Z,84.07
2023-03-12T19:58:44.169Z,83.98
2023-03-12T20:01:16.176Z,83.77
2023-03-12T20:03:48.318Z,83.53
2023-03-12T20:06:20.614Z,83.43
2023-03-12T20:08:52.713Z,83.14
2023-03-12T20:11:24.755Z,83.13
2023-03-12T20:13:56.533Z,83.44
2023-03-12T20:16:28.560Z,83.72
2023-03-12T20:19:00.462Z,83.97
2023-03-12T20:21:32.655Z,84.02
2023-03-12T20:24:05.370Z,84.39
2023-03-12T20:26:41.526Z,84.05
2023-03-12T20:29:13.667Z,83.80
2023-03-12T20:31:45.743Z,83.85
2023-03-12T20:34:18.308Z,83.91
2023-03-12T20:36:50.484Z,83.97
2023-03-12T20:39:22.691Z,83.86
2023-03-12T20:41:54.908Z,84.01
2023-03-12T20:44:27.568Z,84.15
2023-03-12T20:47:00.014Z,84.06
2023-03-12T20:49:32.054Z,83.96
2023-03-12T20:52:04.414Z,83.87
2023-03-12T20:54:36.501Z,83.78
2023-03-12T20:57:08.710Z,83.84
2023-03-12T20:59:41.315Z,83.81
2023-03-12T21:02:17.066Z,83.90
2023-03-12T21:04:49.953Z,83.86
2023-03-12T21:07:22.566Z,83.87
2023-03-12T21:09:54.671Z,83.93
2023-03-12T21:12:26.604Z,83.86
2023-03-12T21:15:00.176Z,83.84
2023-03-12T21:17:38.269Z,83.98
2023-03-12T21:20:17.630Z,84.03
2023-03-12T21:22:49.999Z,83.88
2023-03-12T21:25:22.241Z,84.13
2023-03-12T21:27:55.915Z,84.32
2023-03-12T21:30:27.963Z,84.05
2023-03-12T21:33:00.336Z,84.56
2023-03-12T21:35:32.524Z,84.62
2023-03-12T21:38:04.618Z,84.66
2023-03-12T21:40:37.360Z,84.27
2023-03-12T21:43:09.263Z,84.37
2023-03-12T21:45:42.274Z,83.70
2023-03-12T21:48:14.786Z,84.22
2023-03-12T21:50:46.708Z,84.30
2023-03-12T21:53:23.746Z,84.12
2023-03-12T21:56:02.322Z,83.68
2023-03-12T21:58:37.891Z,84.35
2023-03-12T22:01:15.271Z,84.65
2023-03-12T22:03:48.052Z,84.52
2023-03-12T22:06:20.411Z,84.27
2023-03-12T22:08:52.538Z,84.32
2023-03-12T22:11:24.776Z,84.18
2023-03-12T22:13:57.881Z,84.04
2023-03-12T22:16:30.251Z,84.37
2023-03-12T22:19:02.468Z,85.12
2023-03-12T22:21:34.790Z,84.67
2023-03-12T22:24:07.104Z,84.24
2023-03-12T22:26:39.312Z,84.13
2023-03-12T22:29:11.562Z,84.31
2023-03-12T22:31:43.481Z,84.64
2023-03-12T22:34:15.523Z,84.44
2023-03-12T22:36:47.588Z,84.69
2023-03-12T22:39:19.739Z,84.24
2023-03-12T22:41:52.392Z,84.52
2023-03-12T22:44:24.374Z,84.24
2023-03-12T22:46:56.433Z,84.42
2023-03-12T22:49:28.388Z,84.37
2023-03-12T22:52:00.926Z,84.33
2023-03-12T22:54:33.574Z,84.83
2023-03-12T22:57:05.553Z,84.73
2023-03-12T22:59:38.425Z,84.90
2023-03-12T23:02:10.373Z,84.59
2023-03-12T23:04:42.676Z,84.56
2023-03-12T23:07:17.449Z,84.35
2023-03-12T23:09:49.798Z,84.10
2023-03-12T23:12:21.966Z,84.27
2023-03-12T23:14:54.690Z,84.46
2023-03-12T23:17:26.626Z,84.53
2023-03-12T23:19:58.603Z,84.34
2023-03-12T23:22:30.540Z,84.36
2023-03-12T23:25:02.533Z,84.43
2023-03-12T23:27:35.054Z,84.42
2023-03-12T23:30:08.197Z,84.32
2023-03-12T23:32:40.259Z,84.45
2023-03-12T23:35:12.549Z,84.74
2023-03-12T23:37:44.950Z,84.91
2023-03-12T23:40:17.574Z,84.66
2023-03-12T23:42:49.816Z,84.44
2023-03-12T23:45:22.156Z,84.13
2023-03-12T23:47:54.404Z,84.26
2023-03-12T23:50:26.419Z,84.33
2023-03-12T23:52:58.671Z,84.94
2023-03-12T23:55:31.024Z,84.65
2023-03-12T23:58:04.848Z,84.46
